createdAt,value
2022-07-26T00:02:29.924Z,101500.38
2022-07-26T00:05:12.283Z,101490.59
2022-07-26T00:08:13.750Z,101498.50
2022-07-26T00:10:56.252Z,101498.63
2022-07-26T00:13:47.174Z,101492.53
2022-07-26T00:16:28.705Z,101493.22
2022-07-26T00:19:16.397Z,101500.47
2022-07-26T00:22:17.347Z,101496.34
2022-07-26T00:25:07.337Z,101498.97
2022-07-26T00:27:49.031Z,101501.63
2022-07-26T00:30:38.631Z,101502.56
2022-07-26T00:33:20.002Z,101501.75
2022-07-26T00:36:09.831Z,101494.53
2022-07-26T00:38:50.294Z,101497.41
2022-07-26T00:41:38.378Z,101495.56
2022-07-26T00:44:20.411Z,101494.41
2022-07-26T00:47:08.079Z,101495.44
2022-07-26T00:49:51.291Z,101492.03
2022-07-26T00:52:39.385Z,101495.66
2022-07-26T00:55:21.777Z,101492.16
2022-07-26T00:58:09.504Z,101494.84
2022-07-26T01:00:54.077Z,101490.25
2022-07-26T01:03:43.425Z,101489.31
2022-07-26T01:06:27.311Z,101493.84
2022-07-26T01:09:16.423Z,101489.56
2022-07-26T01:11:58.687Z,101486.81
2022-07-26T01:14:49.382Z,101485.16
2022-07-26T01:17:31.672Z,101486.19
2022-07-26T01:20:22.831Z,101484.34
2022-07-26T01:23:03.305Z,101483.41
2022-07-26T01:25:51.422Z,101489.69
2022-07-26T01:28:33.664Z,101489.66
2022-07-26T01:31:26.801Z,101491.63
2022-07-26T01:34:07.595Z,101492.28
2022-07-26T01:36:56.481Z,101493.06
2022-07-26T01:39:37.305Z,101485.41
2022-07-26T01:42:26.212Z,101501.25
2022-07-26T01:45:07.674Z,101494.25
2022-07-26T01:47:54.406Z,101489.91
2022-07-26T01:50:36.072Z,101486.34
2022-07-26T01:53:26.893Z,101479.25
2022-07-26T01:56:07.344Z,101484.59
2022-07-26T01:58:55.501Z,101481.06
2022-07-26T02:01:38.915Z,101487.34
2022-07-26T02:04:46.357Z,101477.50
2022-07-26T02:07:27.622Z,101489.97
2022-07-26T02:10:17.498Z,101480.09
2022-07-26T02:13:00.320Z,101477.47
2022-07-26T02:15:48.958Z,101486.44
2022-07-26T02:18:29.441Z,101479.50
2022-07-26T02:21:17.456Z,101482.22
2022-07-26T02:23:58.323Z,101482.22
2022-07-26T02:26:49.202Z,101482.00
2022-07-26T02:29:34.184Z,101475.16
2022-07-26T02:32:22.421Z,101478.66
2022-07-26T02:35:04.851Z,101473.38
2022-07-26T02:37:55.861Z,101478.63
2022-07-26T02:40:36.348Z,101475.25
2022-07-26T02:43:24.529Z,101480.50
2022-07-26T02:46:05.746Z,101485.09
2022-07-26T02:48:55.039Z,101491.34
2022-07-26T02:51:50.107Z,101490.56
2022-07-26T02:54:38.510Z,101493.91
2022-07-26T02:57:21.368Z,101494.81
2022-07-26T03:00:08.685Z,101487.75
2022-07-26T03:02:49.482Z,101482.47
2022-07-26T03:05:37.582Z,101483.38
2022-07-26T03:08:19.376Z,101482.41
2022-07-26T03:11:12.013Z,101486.88
2022-07-26T03:13:54.358Z,101483.13
2022-07-26T03:16:41.590Z,101485.03
2022-07-26T03:19:22.418Z,101492.09
2022-07-26T03:22:13.306Z,101488.81
2022-07-26T03:24:54.352Z,101488.88
2022-07-26T03:27:41.495Z,101488.81
2022-07-26T03:30:25.308Z,101491.50
2022-07-26T03:33:16.291Z,101495.91
2022-07-26T03:35:57.421Z,101488.06
2022-07-26T03:38:44.499Z,101486.19
2022-07-26T03:41:25.398Z,101490.75
2022-07-26T03:44:13.916Z,101490.72
2022-07-26T03:46:54.758Z,101492.44
2022-07-26T03:49:41.490Z,101485.34
2022-07-26T03:52:36.383Z,101492.47
2022-07-26T03:55:48.039Z,101497.88
2022-07-26T03:58:28.369Z,101496.13
2022-07-26T04:01:15.644Z,101507.81
2022-07-26T04:03:56.404Z,101494.47
2022-07-26T04:06:44.627Z,101491.84
2022-07-26T04:09:27.653Z,101488.16
2022-07-26T04:12:15.536Z,101489.19
2022-07-26T04:14:56.526Z,101477.75
2022-07-26T04:17:48.871Z,101483.19
2022-07-26T04:20:31.528Z,101489.19
2022-07-26T04:23:19.497Z,101486.81
2022-07-26T04:26:01.169Z,101481.63
2022-07-26T04:28:50.178Z,101481.66
2022-07-26T04:31:36.359Z,101488.75
2022-07-26T04:34:25.528Z,101494.91
2022-07-26T04:37:08.452Z,101494.88
2022-07-26T04:39:55.636Z,101504.53
2022-07-26T04:42:36.446Z,101510.69
2022-07-26T04:45:23.516Z,101501.00
2022-07-26T04:48:05.503Z,101510.72
2022-07-26T04:50:53.077Z,101504.47
2022-07-26T04:53:41.003Z,101508.97
2022-07-26T04:56:22.579Z,101509.84
2022-07-26T04:59:09.793Z,101516.75
2022-07-26T05:01:52.071Z,101517.56
2022-07-26T05:04:39.800Z,101529.81
2022-07-26T05:07:20.559Z,101521.16
2022-07-26T05:10:15.938Z,101523.06
2022-07-26T05:13:05.650Z,101524.66
2022-07-26T05:15:46.440Z,101530.88
2022-07-26T05:18:45.973Z,101539.50
2022-07-26T05:21:29.857Z,101536.91
2022-07-26T05:24:17.324Z,101535.06
2022-07-26T05:27:00.048Z,101537.63
2022-07-26T05:29:49.630Z,101535.00
2022-07-26T05:32:31.772Z,101530.53
2022-07-26T05:35:20.146Z,101530.25
2022-07-26T05:38:01.583Z,101536.50
2022-07-26T05:40:51.054Z,101531.91
2022-07-26T05:43:40.702Z,101537.38
2022-07-26T05:46:31.718Z,101544.34
2022-07-26T05:49:17.743Z,101537.25
2022-07-26T05:52:14.469Z,101539.03
2022-07-26T05:55:01.829Z,101541.66
2022-07-26T05:57:49.478Z,101539.88
2022-07-26T06:00:36.580Z,101549.41
2022-07-26T06:03:23.532Z,101546.44
2022-07-26T06:06:11.847Z,101544.66
2022-07-26T06:08:52.693Z,101548.19
2022-07-26T06:11:39.487Z,101548.09
2022-07-26T06:14:20.582Z,101547.09
2022-07-26T06:17:10.523Z,101544.44
2022-07-26T06:19:52.216Z,101540.81
2022-07-26T06:22:39.481Z,101546.06
2022-07-26T06:25:20.580Z,101548.59
2022-07-26T06:28:12.125Z,101551.06
2022-07-26T06:30:52.617Z,101549.31
2022-07-26T06:33:40.860Z,101552.03
2022-07-26T06:36:25.126Z,101554.63
2022-07-26T06:39:16.481Z,101559.56
2022-07-26T06:41:58.786Z,101565.72
2022-07-26T06:44:47.697Z,101563.03
2022-07-26T06:47:28.637Z,101559.53
2022-07-26T06:50:17.345Z,101559.28
2022-07-26T06:53:13.671Z,101556.03
2022-07-26T06:55:57.406Z,101555.72
2022-07-26T06:58:44.607Z,101567.03
2022-07-26T07:01:57.032Z,101565.69
2022-07-26T07:04:33.176Z,101568.56
2022-07-26T07:07:15.477Z,101571.66
2022-07-26T07:10:02.615Z,101572.31
2022-07-26T07:12:43.893Z,101577.28
2022-07-26T07:15:34.561Z,101573.47
2022-07-26T07:18:18.999Z,101574.25
2022-07-26T07:21:06.808Z,101576.50
2022-07-26T07:23:47.493Z,101580.09
2022-07-26T07:26:38.027Z,101577.75
2022-07-26T07:29:22.392Z,101579.06
2022-07-26T07:32:15.921Z,101582.00
2022-07-26T07:35:00.282Z,101574.47
2022-07-26T07:37:53.375Z,101583.41
2022-07-26T07:40:34.559Z,101579.63
2022-07-26T07:43:22.661Z,101582.44
2022-07-26T07:46:04.533Z,101584.31
2022-07-26T07:48:56.227Z,101577.72
2022-07-26T07:51:38.507Z,101587.66
2022-07-26T07:54:35.940Z,101585.09
2022-07-26T07:57:16.654Z,101588.97
2022-07-26T08:00:05.731Z,101586.50
2022-07-26T08:02:50.858Z,101595.81
2022-07-26T08:05:40.515Z,101591.25
2022-07-26T08:08:22.894Z,101592.56
2022-07-26T08:11:13.643Z,101595.19
2022-07-26T08:13:56.678Z,101589.47
2022-07-26T08:16:44.801Z,101592.94
2022-07-26T08:19:25.655Z,101585.84
2022-07-26T08:22:18.462Z,101580.13
2022-07-26T08:25:00.928Z,101587.63
2022-07-26T08:28:09.348Z,101598.69
2022-07-26T08:31:20.129Z,101591.41
2022-07-26T08:34:07.343Z,101586.13
2022-07-26T08:37:15.811Z,101583.94
2022-07-26T08:40:02.669Z,101594.59
2022-07-26T08:42:43.586Z,101584.53
2022-07-26T08:45:33.719Z,101590.28
2022-07-26T08:48:17.765Z,101583.72
2022-07-26T08:51:15.930Z,101582.84
2022-07-26T08:54:14.356Z,101582.44
2022-07-26T08:57:03.649Z,101576.00
2022-07-26T08:59:44.944Z,101584.16
2022-07-26T09:02:47.402Z,101579.50
2022-07-26T09:05:39.656Z,101584.75
2022-07-26T09:08:37.227Z,101582.84
2022-07-26T09:11:31.493Z,101586.88
2022-07-26T09:14:19.889Z,101588.34
2022-07-26T09:17:07.331Z,101588.00
2022-07-26T09:20:14.677Z,101594.13
2022-07-26T09:23:08.593Z,101597.13
2022-07-26T09:25:57.594Z,101588.84
2022-07-26T09:28:45.060Z,101588.09
2022-07-26T09:31:32.815Z,101580.97
2022-07-26T09:34:14.060Z,101582.31
2022-07-26T09:37:02.121Z,101580.22
2022-07-26T09:40:01.602Z,101582.88
2022-07-26T09:43:04.726Z,101578.44
2022-07-26T09:45:46.360Z,101585.34
2022-07-26T09:49:09.773Z,101584.28
2022-07-26T09:51:48.687Z,101589.41
2022-07-26T09:54:37.064Z,101589.53
2022-07-26T09:57:17.629Z,101582.44
2022-07-26T10:00:05.945Z,101589.69
2022-07-26T10:02:48.588Z,101587.50
2022-07-26T10:05:36.758Z,101585.75
2022-07-26T10:08:19.593Z,101589.44
2022-07-26T10:11:14.368Z,101591.88
2022-07-26T10:13:55.999Z,101586.72
2022-07-26T10:16:44.729Z,101591.03
2022-07-26T10:20:09.444Z,101584.66
2022-07-26T10:23:05.857Z,101584.97
2022-07-26T10:25:46.649Z,101588.69
2022-07-26T10:28:36.912Z,101589.53
2022-07-26T10:31:28.049Z,101589.66
2022-07-26T10:34:16.128Z,101584.69
2022-07-26T10:37:06.005Z,101591.69
2022-07-26T10:39:53.734Z,101585.47
2022-07-26T10:42:49.631Z,101583.13
2022-07-26T10:45:37.661Z,101577.13
2022-07-26T10:48:22.635Z,101586.31
2022-07-26T10:51:33.778Z,101592.78
2022-07-26T10:54:24.616Z,101591.44
2022-07-26T10:57:05.781Z,101594.22
2022-07-26T10:59:56.289Z,101592.31
2022-07-26T11:02:39.943Z,101597.03
2022-07-26T11:05:35.757Z,101595.50
2022-07-26T11:08:17.557Z,101596.38
2022-07-26T11:11:06.185Z,101601.72
2022-07-26T11:13:46.755Z,101593.47
2022-07-26T11:16:48.025Z,101591.53
2022-07-26T11:19:30.900Z,101599.03
2022-07-26T11:22:17.645Z,101595.13
2022-07-26T11:24:58.760Z,101594.97
2022-07-26T11:28:11.658Z,101597.63
2022-07-26T11:31:12.875Z,101584.81
2022-07-26T11:34:03.035Z,101589.91
2022-07-26T11:36:44.852Z,101584.34
2022-07-26T11:39:40.049Z,101578.31
2022-07-26T11:42:22.213Z,101586.13
2022-07-26T11:45:09.025Z,101578.44
2022-07-26T11:47:49.796Z,101585.25
2022-07-26T11:50:36.770Z,101576.19
2022-07-26T11:53:37.250Z,101569.47
2022-07-26T11:56:25.114Z,101562.94
2022-07-26T11:59:06.799Z,101574.38
2022-07-26T12:01:57.714Z,101571.16
2022-07-26T12:04:46.644Z,101565.44
2022-07-26T12:07:35.079Z,101560.53
2022-07-26T12:10:22.773Z,101565.75
2022-07-26T12:13:55.400Z,101561.75
2022-07-26T12:16:53.871Z,101558.31
2022-07-26T12:19:43.445Z,101553.16
2022-07-26T12:22:26.790Z,101562.66
2022-07-26T12:25:15.860Z,101568.91
2022-07-26T12:27:55.867Z,101572.13
2022-07-26T12:30:43.715Z,101567.72
2022-07-26T12:33:25.862Z,101563.88
2022-07-26T12:36:32.297Z,101561.56
2022-07-26T12:39:16.214Z,101567.03
2022-07-26T12:42:02.770Z,101559.00
2022-07-26T12:44:43.848Z,101554.25
2022-07-26T12:47:33.110Z,101549.03
2022-07-26T12:50:15.102Z,101559.69
2022-07-26T12:53:14.780Z,101562.25
2022-07-26T12:56:01.809Z,101562.31
2022-07-26T12:58:43.104Z,101551.88
2022-07-26T13:01:32.030Z,101552.00
2022-07-26T13:04:13.369Z,101552.59
2022-07-26T13:07:00.843Z,101548.06
2022-07-26T13:09:42.766Z,101547.75
2022-07-26T13:12:34.488Z,101547.28
2022-07-26T13:15:16.828Z,101543.00
2022-07-26T13:18:03.843Z,101538.94
2022-07-26T13:20:48.505Z,101540.53
2022-07-26T13:23:41.004Z,101534.41
2022-07-26T13:26:21.789Z,101526.34
2022-07-26T13:29:09.845Z,101531.56
2022-07-26T13:31:50.860Z,101523.91
2022-07-26T13:34:38.995Z,101535.03
2022-07-26T13:37:20.130Z,101521.69
2022-07-26T13:40:07.839Z,101518.28
2022-07-26T13:42:49.588Z,101520.91
2022-07-26T13:45:40.108Z,101521.72
2022-07-26T13:48:20.757Z,101513.78
2022-07-26T13:51:09.389Z,101507.47
2022-07-26T13:54:03.779Z,101507.97
2022-07-26T13:56:52.002Z,101511.19
2022-07-26T13:59:34.523Z,101510.25
2022-07-26T14:02:25.708Z,101506.25
2022-07-26T14:05:08.156Z,101509.84
2022-07-26T14:07:56.660Z,101507.56
2022-07-26T14:10:37.776Z,101503.69
2022-07-26T14:13:25.895Z,101512.97
2022-07-26T14:16:06.759Z,101506.28
2022-07-26T14:18:56.585Z,101497.13
2022-07-26T14:21:58.741Z,101502.28
2022-07-26T14:24:45.862Z,101502.94
2022-07-26T14:27:26.781Z,101508.56
2022-07-26T14:30:18.945Z,101506.13
2022-07-26T14:32:59.761Z,101513.28
2022-07-26T14:35:47.862Z,101513.22
2022-07-26T14:38:30.155Z,101514.19
2022-07-26T14:41:19.484Z,101511.88
2022-07-26T14:44:00.817Z,101510.06
2022-07-26T14:46:49.946Z,101510.56
2022-07-26T14:49:33.570Z,101509.22
2022-07-26T14:52:23.406Z,101511.03
2022-07-26T14:55:10.193Z,101516.56
2022-07-26T14:57:50.889Z,101509.44
2022-07-26T15:00:38.876Z,101516.00
2022-07-26T15:03:21.356Z,101508.75
2022-07-26T15:06:07.820Z,101517.84
2022-07-26T15:08:48.895Z,101504.81
2022-07-26T15:11:35.810Z,101509.00
2022-07-26T15:14:17.700Z,101514.38
2022-07-26T15:17:06.799Z,101506.63
2022-07-26T15:19:47.898Z,101504.94
2022-07-26T15:22:34.816Z,101509.63
2022-07-26T15:25:16.949Z,101507.50
2022-07-26T15:28:04.177Z,101507.28
2022-07-26T15:30:44.950Z,101509.44
2022-07-26T15:33:33.172Z,101498.06
2022-07-26T15:36:15.580Z,101502.41
2022-07-26T15:39:16.069Z,101505.19
2022-07-26T15:42:03.924Z,101499.53
2022-07-26T15:44:54.884Z,101506.88
2022-07-26T15:47:53.188Z,101493.00
2022-07-26T15:50:48.823Z,101495.66
2022-07-26T15:53:48.789Z,101502.88
2022-07-26T15:56:35.818Z,101480.47
2022-07-26T15:59:20.480Z,101486.34
2022-07-26T16:02:09.261Z,101488.78
2022-07-26T16:04:49.972Z,101484.44
2022-07-26T16:07:41.244Z,101489.47
2022-07-26T16:10:25.048Z,101481.28
2022-07-26T16:13:15.931Z,101482.09
2022-07-26T16:15:57.049Z,101478.13
2022-07-26T16:18:43.878Z,101492.25
2022-07-26T16:21:26.797Z,101485.81
2022-07-26T16:24:14.843Z,101487.34
2022-07-26T16:26:56.941Z,101482.25
2022-07-26T16:29:43.865Z,101478.94
2022-07-26T16:32:25.137Z,101480.13
2022-07-26T16:35:18.100Z,101484.53
2022-07-26T16:37:59.775Z,101484.75
2022-07-26T16:40:46.875Z,101483.50
2022-07-26T16:43:31.495Z,101477.06
2022-07-26T16:46:18.404Z,101479.66
2022-07-26T16:49:20.059Z,101478.44
2022-07-26T16:52:07.628Z,101483.28
2022-07-26T16:54:55.401Z,101477.13
2022-07-26T16:57:38.395Z,101469.47
2022-07-26T17:00:28.013Z,101479.16
2022-07-26T17:03:09.272Z,101478.81
2022-07-26T17:05:56.781Z,101471.28
2022-07-26T17:08:39.640Z,101475.50
2022-07-26T17:11:29.042Z,101476.59
2022-07-26T17:14:09.871Z,101472.13
2022-07-26T17:16:59.046Z,101468.53
2022-07-26T17:19:40.257Z,101475.25
2022-07-26T17:22:29.974Z,101467.38
2022-07-26T17:25:14.366Z,101477.56
2022-07-26T17:28:02.913Z,101475.91
2022-07-26T17:30:45.743Z,101480.19
2022-07-26T17:33:35.019Z,101479.50
2022-07-26T17:36:26.878Z,101484.53
2022-07-26T17:39:15.858Z,101494.78
2022-07-26T17:41:56.864Z,101490.66
2022-07-26T17:44:46.488Z,101492.28
2022-07-26T17:47:29.022Z,101484.53
2022-07-26T17:53:18.275Z,101490.16
2022-07-26T17:56:11.996Z,101485.94
2022-07-26T17:58:53.267Z,101491.88
2022-07-26T18:01:50.559Z,101492.75
2022-07-26T18:04:35.313Z,101500.69
2022-07-26T18:07:22.986Z,101483.03
2022-07-26T18:10:05.781Z,101488.56
2022-07-26T18:12:55.168Z,101485.13
2022-07-26T18:15:36.715Z,101491.38
2022-07-26T18:18:24.993Z,101496.84
2022-07-26T18:21:05.928Z,101496.13
2022-07-26T18:24:15.744Z,101491.84
2022-07-26T18:26:55.900Z,101493.56
2022-07-26T18:29:43.992Z,101494.47
2022-07-26T18:32:26.309Z,101495.41
2022-07-26T18:35:14.652Z,101494.88
2022-07-26T18:37:55.943Z,101493.34
2022-07-26T18:40:45.026Z,101499.00
2022-07-26T18:43:25.966Z,101498.88
2022-07-26T18:46:14.073Z,101502.91
2022-07-26T18:48:55.348Z,101504.66
2022-07-26T18:51:46.119Z,101506.59
2022-07-26T18:54:44.294Z,101508.66
2022-07-26T18:57:32.921Z,101511.16
2022-07-26T19:00:22.521Z,101515.75
2022-07-26T19:03:10.009Z,101511.00
2022-07-26T19:05:51.423Z,101514.00
2022-07-26T19:08:39.236Z,101507.84
2022-07-26T19:11:21.690Z,101511.94
2022-07-26T19:14:11.038Z,101509.50
2022-07-26T19:16:53.092Z,101505.88
2022-07-26T19:19:42.972Z,101506.31
2022-07-26T19:22:23.922Z,101508.56
2022-07-26T19:25:16.188Z,101522.88
2022-07-26T19:27:56.956Z,101516.81
2022-07-26T19:30:45.890Z,101513.41
2022-07-26T19:33:31.216Z,101507.47
2022-07-26T19:36:25.355Z,101504.91
2022-07-26T19:39:08.431Z,101511.41
2022-07-26T19:41:55.527Z,101516.81
2022-07-26T19:44:35.975Z,101520.78
2022-07-26T19:47:26.646Z,101526.91
2022-07-26T19:50:07.035Z,101527.94
2022-07-26T19:52:55.088Z,101534.41
2022-07-26T19:55:48.959Z,101537.75
2022-07-26T19:58:37.059Z,101545.09
2022-07-26T20:01:18.775Z,101547.59
2022-07-26T20:04:06.099Z,101544.13
2022-07-26T20:06:47.350Z,101540.00
2022-07-26T20:09:37.117Z,101548.25
2022-07-26T20:12:17.960Z,101551.66
2022-07-26T20:15:05.288Z,101544.28
2022-07-26T20:17:48.324Z,101547.06
2022-07-26T20:20:37.069Z,101552.56
2022-07-26T20:23:18.025Z,101558.94
2022-07-26T20:26:05.878Z,101558.84
2022-07-26T20:28:48.357Z,101555.38
2022-07-26T20:31:41.072Z,101561.31
2022-07-26T20:34:22.731Z,101566.53
2022-07-26T20:37:11.574Z,101569.41
2022-07-26T20:39:51.987Z,101565.03
2022-07-26T20:42:44.260Z,101567.69
2022-07-26T20:45:25.027Z,101568.69
2022-07-26T20:48:20.318Z,101578.25
2022-07-26T20:51:02.133Z,101578.19
2022-07-26T20:53:57.977Z,101579.81
2022-07-26T20:56:46.980Z,101582.63
2022-07-26T20:59:29.480Z,101583.38
2022-07-26T21:02:16.041Z,101585.44
2022-07-26T21:04:58.832Z,101585.47
2022-07-26T21:07:58.543Z,101588.00
2022-07-26T21:10:41.458Z,101590.84
2022-07-26T21:13:30.162Z,101595.38
2022-07-26T21:16:12.199Z,101593.41
2022-07-26T21:19:03.127Z,101599.69
2022-07-26T21:21:45.674Z,101601.63
2022-07-26T21:24:33.776Z,101595.69
2022-07-26T21:27:15.153Z,101601.75
2022-07-26T21:30:03.006Z,101601.84
2022-07-26T21:32:44.391Z,101606.28
2022-07-26T21:35:32.594Z,101598.19
2022-07-26T21:38:13.104Z,101607.84
2022-07-26T21:44:03.538Z,101607.34
2022-07-26T21:46:51.168Z,101604.41
2022-07-26T21:49:32.304Z,101607.97
2022-07-26T21:52:20.379Z,101612.66
2022-07-26T21:55:17.856Z,101610.91
2022-07-26T21:58:05.775Z,101606.72
2022-07-26T22:00:47.181Z,101605.09
2022-07-26T22:03:35.021Z,101606.09
2022-07-26T22:06:17.548Z,101608.81
2022-07-26T22:09:06.055Z,101606.03
2022-07-26T22:11:47.293Z,101604.94
2022-07-26T22:14:34.825Z,101609.47
2022-07-26T22:17:18.816Z,101611.44
2022-07-26T22:20:07.045Z,101607.13
2022-07-26T22:22:48.140Z,101613.31
2022-07-26T22:25:38.790Z,101618.63
2022-07-26T22:28:20.616Z,101608.81
2022-07-26T22:31:08.457Z,101608.88
2022-07-26T22:33:49.436Z,101611.56
2022-07-26T22:36:36.060Z,101619.56
2022-07-26T22:39:18.883Z,101618.88
2022-07-26T22:42:15.263Z,101620.56
2022-07-26T22:44:59.184Z,101621.53
2022-07-26T22:47:55.885Z,101617.09
2022-07-26T22:50:37.580Z,101618.91
2022-07-26T22:53:25.061Z,101616.34
2022-07-26T22:56:12.206Z,101615.56
2022-07-26T22:59:00.555Z,101611.28
2022-07-26T23:01:48.600Z,101616.50
2022-07-26T23:04:30.009Z,101618.22
2022-07-26T23:07:20.187Z,101614.66
2022-07-26T23:10:02.081Z,101612.09
2022-07-26T23:12:53.386Z,101614.78
2022-07-26T23:15:35.061Z,101613.03
2022-07-26T23:18:22.221Z,101617.44
2022-07-26T23:21:04.047Z,101619.13
2022-07-26T23:23:54.271Z,101612.09
2022-07-26T23:26:36.983Z,101607.66
2022-07-26T23:29:24.212Z,101610.28
2022-07-26T23:32:05.071Z,101612.16
2022-07-26T23:34:52.982Z,101609.50
2022-07-26T23:37:34.484Z,101610.50
2022-07-26T23:40:21.649Z,101607.84
2022-07-26T23:43:03.067Z,101612.28
2022-07-26T23:45:50.217Z,101610.50
2022-07-26T23:48:31.168Z,101604.28
2022-07-26T23:51:19.547Z,101603.47
2022-07-26T23:54:00.984Z,101608.69
2022-07-26T23:56:50.426Z,101613.09
2022-07-26T23:59:31.104Z,101603.47
